Time;durP1;ratioP1;P1;durP2;ratioP2;P2;SDS_P1;SDS_P2;PMS_P1;PMS_P2;Temp;Humidity;BMP_temperature;BMP_pressure;BME280_temperature;BME280_humidity;BME280_pressure;Samples;Min_cycle;Max_cycle;Signal;HPM_P1;HPM_P2
2021/08/07 00:01:44;;;;;;;;;1.00;1.00;;;;;;;;4639920;24;45831;-77
2021/08/07 00:04:38;;;;;;;;;2.00;0.00;;;;;;;;4684501;30;46826;-79
2021/08/07 00:07:06;;;;;;;;;1.00;1.00;;;;;;;;4674543;30;45575;-80
2021/08/07 00:09:31;;;;;;;;;2.00;0.00;;;;;;;;4673689;30;46578;-79
2021/08/07 00:11:56;;;;;;;;;0.00;0.00;;;;;;;;4687694;30;45700;-80
2021/08/07 00:14:21;;;;;;;;;0.25;0.25;;;;;;;;4690329;30;46886;-80
2021/08/07 00:16:47;;;;;;;;;1.25;1.00;;;;;;;;4688598;30;45678;-80
2021/08/07 00:19:41;;;;;;;;;1.00;1.00;;;;;;;;4670171;30;45630;-79
2021/08/07 00:22:07;;;;;;;;;2.25;1.00;;;;;;;;4664086;30;45627;-80
2021/08/07 00:24:32;;;;;;;;;0.50;0.50;;;;;;;;4687965;30;46507;-81
2021/08/07 00:27:08;;;;;;;;;2.25;0.00;;;;;;;;4693314;30;45531;-82
2021/08/07 00:35:16;;;;;;;;;2.00;1.00;;;;;;;;4787005;24;45614;-80
2021/08/07 00:37:51;;;;;;;;;0.75;0.75;;;;;;;;4659288;30;45664;-80
2021/08/07 00:40:16;;;;;;;;;1.00;1.00;;;;;;;;4645782;30;45557;-79
2021/08/07 00:43:08;;;;;;;;;0.25;0.25;;;;;;;;4663954;30;45645;-79
2021/08/07 00:45:33;;;;;;;;;1.00;1.00;;;;;;;;4658213;30;46162;-80
2021/08/07 00:48:10;;;;;;;;;2.50;2.00;;;;;;;;4644773;30;45544;-79
2021/08/07 00:50:36;;;;;;;;;0.75;0.25;;;;;;;;4642935;30;45813;-80
2021/08/07 00:53:28;;;;;;;;;3.00;0.50;;;;;;;;4659356;30;45573;-83
2021/08/07 00:59:02;;;;;;;;;2.00;1.00;;;;;;;;4971211;24;45850;-81
2021/08/07 01:01:45;;;;;;;;;0.75;0.75;;;;;;;;4692755;30;45582;-82
2021/08/07 01:04:13;;;;;;;;;0.25;0.25;;;;;;;;4691903;30;46110;-82
2021/08/07 01:06:56;;;;;;;;;1.25;0.00;;;;;;;;4688152;30;46668;-82
2021/08/07 01:09:35;;;;;;;;;4.00;0.25;;;;;;;;4697748;30;45406;-81
2021/08/07 01:12:02;;;;;;;;;2.25;1.00;;;;;;;;4691689;30;45626;-82
2021/08/07 01:14:35;;;;;;;;;2.50;1.25;;;;;;;;4696651;30;45392;-84
2021/08/07 01:17:02;;;;;;;;;1.00;1.00;;;;;;;;4693135;30;55841;-83
2021/08/07 01:19:34;;;;;;;;;1.00;1.00;;;;;;;;4698290;30;45639;-81
2021/08/07 01:22:04;;;;;;;;;0.75;0.75;;;;;;;;4731285;24;47139;-84
2021/08/07 01:24:58;;;;;;;;;1.00;1.00;;;;;;;;4762966;24;45512;-81
2021/08/07 01:27:31;;;;;;;;;1.75;1.00;;;;;;;;4697230;30;45635;-82
2021/08/07 01:32:54;;;;;;;;;2.00;0.25;;;;;;;;4703867;24;49419;-82
2021/08/07 01:35:20;;;;;;;;;1.25;1.00;;;;;;;;4653834;30;45703;-82
2021/08/07 01:38:22;;;;;;;;;0.50;0.50;;;;;;;;4657793;30;46331;-82
2021/08/07 01:40:47;;;;;;;;;1.00;1.00;;;;;;;;4654100;30;45791;-81
2021/08/07 01:46:27;;;;;;;;;0.25;0.25;;;;;;;;4565809;31;45524;-80
2021/08/07 01:48:52;;;;;;;;;1.00;1.00;;;;;;;;4552696;31;47862;-80
2021/08/07 01:57:09;;;;;;;;;1.00;1.00;;;;;;;;5022751;24;45543;-77
2021/08/07 01:59:35;;;;;;;;;2.25;1.00;;;;;;;;4662593;30;45594;-81
2021/08/07 02:02:01;;;;;;;;;2.00;1.00;;;;;;;;4657230;30;45564;-78
2021/08/07 02:04:29;;;;;;;;;2.00;0.00;;;;;;;;4696565;24;45508;-79
2021/08/07 02:07:33;;;;;;;;;1.00;0.50;;;;;;;;4690315;30;45917;-78
2021/08/07 02:09:59;;;;;;;;;3.00;1.00;;;;;;;;4673188;24;47072;-88
2021/08/07 02:12:24;;;;;;;;;0.75;0.75;;;;;;;;4668645;30;45785;-89
2021/08/07 02:14:50;;;;;;;;;2.00;1.00;;;;;;;;4679944;30;45439;-88
2021/08/07 02:17:16;;;;;;;;;1.00;1.00;;;;;;;;4668651;30;45661;-88
2021/08/07 02:19:41;;;;;;;;;2.00;0.00;;;;;;;;4683543;30;46141;-88
2021/08/07 02:22:07;;;;;;;;;1.00;1.00;;;;;;;;4681079;30;45539;-88
2021/08/07 02:24:33;;;;;;;;;0.00;0.00;;;;;;;;4680058;30;45389;-88
2021/08/07 02:26:59;;;;;;;;;0.00;0.00;;;;;;;;4684577;30;45636;-89
2021/08/07 02:29:25;;;;;;;;;3.50;1.00;;;;;;;;4667238;30;51780;-88
2021/08/07 02:31:50;;;;;;;;;0.00;0.00;;;;;;;;4688746;30;45486;-89
2021/08/07 02:34:16;;;;;;;;;0.00;0.00;;;;;;;;4668421;30;45774;-88
2021/08/07 02:36:42;;;;;;;;;0.50;0.50;;;;;;;;4680538;30;45767;-88
2021/08/07 02:39:08;;;;;;;;;3.75;0.75;;;;;;;;4667721;30;48312;-88
2021/08/07 02:41:33;;;;;;;;;1.00;1.00;;;;;;;;4683460;30;45809;-88
2021/08/07 02:44:02;;;;;;;;;1.00;1.00;;;;;;;;4684543;30;45413;-88
2021/08/07 02:46:27;;;;;;;;;1.50;1.00;;;;;;;;4683989;30;45595;-89
2021/08/07 02:48:54;;;;;;;;;0.75;0.25;;;;;;;;4687128;30;47119;-88
2021/08/07 02:51:20;;;;;;;;;1.75;0.50;;;;;;;;4681077;30;46015;-88
2021/08/07 02:53:46;;;;;;;;;0.50;0.00;;;;;;;;4678540;30;45563;-88
2021/08/07 02:56:11;;;;;;;;;1.75;0.50;;;;;;;;4681681;30;45519;-88
2021/08/07 02:58:37;;;;;;;;;2.25;0.00;;;;;;;;4684735;30;45920;-89
2021/08/07 03:01:02;;;;;;;;;0.00;0.00;;;;;;;;4680515;30;45551;-88
2021/08/07 03:03:27;;;;;;;;;2.75;1.00;;;;;;;;4683013;30;47553;-88
2021/08/07 03:05:52;;;;;;;;;1.00;1.00;;;;;;;;4681063;30;45385;-88
2021/08/07 03:08:18;;;;;;;;;2.00;1.00;;;;;;;;4684508;30;46427;-89
2021/08/07 03:10:43;;;;;;;;;3.00;1.00;;;;;;;;4681317;30;45411;-88
2021/08/07 03:13:09;;;;;;;;;2.25;1.00;;;;;;;;4668098;30;45718;-88
2021/08/07 03:15:35;;;;;;;;;1.00;0.75;;;;;;;;4683970;30;45782;-89
2021/08/07 03:18:00;;;;;;;;;3.00;0.50;;;;;;;;4666672;30;47179;-89
2021/08/07 03:20:31;;;;;;;;;3.00;1.00;;;;;;;;4680929;30;45542;-89
2021/08/07 03:22:58;;;;;;;;;3.00;1.00;;;;;;;;4686187;30;45464;-88
2021/08/07 03:25:23;;;;;;;;;3.00;1.00;;;;;;;;4666267;30;45767;-88
2021/08/07 03:27:48;;;;;;;;;1.00;1.00;;;;;;;;4681075;30;46689;-88
2021/08/07 03:32:46;;;;;;;;;2.00;0.75;;;;;;;;4672398;30;45597;-78
2021/08/07 03:35:11;;;;;;;;;1.00;1.00;;;;;;;;4671490;30;45495;-78
2021/08/07 03:37:45;;;;;;;;;1.00;1.00;;;;;;;;4679401;30;45735;-78
2021/08/07 03:40:11;;;;;;;;;1.00;1.00;;;;;;;;4670148;30;45519;-78
2021/08/07 03:48:41;;;;;;;;;0.25;0.25;;;;;;;;4641567;30;45559;-79
2021/08/07 03:51:19;;;;;;;;;;;;;;;;;;;;;
2021/08/07 03:54:11;;;;;;;;;1.25;1.00;;;;;;;;4628069;30;69203;-78
2021/08/07 03:56:36;;;;;;;;;1.00;1.00;;;;;;;;4626454;30;45634;-78
2021/08/07 03:59:33;;;;;;;;;1.00;1.00;;;;;;;;4635520;30;46616;-80
2021/08/07 04:01:59;;;;;;;;;1.00;1.00;;;;;;;;4637867;30;45571;-78
2021/08/07 04:05:05;;;;;;;;;3.00;1.00;;;;;;;;4641707;30;45788;-79
2021/08/07 04:07:31;;;;;;;;;1.00;1.00;;;;;;;;4566603;30;45712;-77
2021/08/07 04:10:22;;;;;;;;;2.75;1.25;;;;;;;;4590325;30;46664;-78
2021/08/07 04:12:47;;;;;;;;;1.00;1.00;;;;;;;;4566194;31;45646;-78
2021/08/07 04:15:39;;;;;;;;;1.00;1.00;;;;;;;;4559125;31;45814;-78
2021/08/07 04:18:04;;;;;;;;;2.00;1.00;;;;;;;;4491335;31;45625;-78
2021/08/07 04:20:30;;;;;;;;;1.50;1.50;;;;;;;;4490814;31;46208;-78
2021/08/07 04:23:03;;;;;;;;;2.00;1.00;;;;;;;;4493270;31;45744;-78
2021/08/07 04:25:32;;;;;;;;;4.00;2.00;;;;;;;;4506249;31;45671;-78
2021/08/07 04:27:57;;;;;;;;;2.50;1.00;;;;;;;;4519978;31;45924;-78
2021/08/07 04:30:23;;;;;;;;;2.00;0.25;;;;;;;;4522444;31;46261;-78
2021/08/07 04:32:54;;;;;;;;;2.00;1.00;;;;;;;;4520255;31;46525;-77
2021/08/07 04:35:19;;;;;;;;;2.00;2.00;;;;;;;;4518217;31;45823;-78
2021/08/07 04:37:44;;;;;;;;;2.25;1.00;;;;;;;;4522244;31;45512;-78
2021/08/07 04:40:10;;;;;;;;;2.25;1.00;;;;;;;;4517913;31;46318;-78
2021/08/07 04:42:35;;;;;;;;;2.00;1.00;;;;;;;;4582607;30;46086;-79
2021/08/07 04:45:00;;;;;;;;;2.00;1.25;;;;;;;;4586423;30;45745;-79
2021/08/07 04:47:29;;;;;;;;;2.75;0.00;;;;;;;;4581506;30;45801;-79
2021/08/07 04:49:54;;;;;;;;;1.00;1.00;;;;;;;;4587365;30;46696;-78
2021/08/07 04:52:19;;;;;;;;;1.00;1.00;;;;;;;;4583407;30;45463;-78
2021/08/07 04:54:53;;;;;;;;;4.00;1.00;;;;;;;;4616159;30;45561;-78
2021/08/07 04:57:18;;;;;;;;;1.00;1.00;;;;;;;;4677175;30;46453;-77
2021/08/07 05:03:15;;;;;;;;;2.50;1.00;;;;;;;;4618758;30;45725;-77
2021/08/07 05:05:41;;;;;;;;;4.75;1.00;;;;;;;;4612207;30;45586;-78
2021/08/07 05:08:06;;;;;;;;;1.00;1.00;;;;;;;;4625258;30;47714;-78
2021/08/07 05:10:37;;;;;;;;;1.00;1.00;;;;;;;;4631720;30;45894;-78
2021/08/07 05:13:02;;;;;;;;;1.00;1.00;;;;;;;;4621447;30;45537;-78
2021/08/07 05:15:30;;;;;;;;;1.75;1.75;;;;;;;;4622965;30;45485;-78
2021/08/07 05:17:58;;;;;;;;;1.50;1.00;;;;;;;;4621780;30;45784;-82
2021/08/07 05:20:23;;;;;;;;;2.00;1.25;;;;;;;;4618314;30;45844;-78
2021/08/07 05:22:48;;;;;;;;;3.00;2.00;;;;;;;;4624354;30;46366;-78
2021/08/07 05:25:22;;;;;;;;;2.25;2.00;;;;;;;;4620737;30;45692;-77
2021/08/07 05:27:47;;;;;;;;;2.00;2.00;;;;;;;;4631616;30;45544;-78
2021/08/07 05:30:13;;;;;;;;;2.00;2.00;;;;;;;;4625151;30;45600;-79
2021/08/07 05:32:38;;;;;;;;;5.00;1.25;;;;;;;;4620586;30;45622;-79
2021/08/07 05:35:04;;;;;;;;;2.00;1.00;;;;;;;;4625720;30;45708;-83
2021/08/07 05:37:30;;;;;;;;;1.00;1.00;;;;;;;;4625245;30;45679;-79
2021/08/07 05:39:59;;;;;;;;;4.50;1.50;;;;;;;;4651493;30;46489;-77
2021/08/07 05:42:24;;;;;;;;;2.00;2.00;;;;;;;;4687765;30;45139;-78
2021/08/07 05:48:04;;;;;;;;;2.00;1.00;;;;;;;;4582599;30;45747;-78
2021/08/07 05:50:34;;;;;;;;;3.00;2.00;;;;;;;;4600167;30;47782;-78
2021/08/07 05:56:11;;;;;;;;;1.50;1.00;;;;;;;;4586661;24;45820;-88
2021/08/07 05:58:37;;;;;;;;;3.00;1.00;;;;;;;;4671331;30;45524;-89
2021/08/07 06:01:03;;;;;;;;;3.00;1.00;;;;;;;;4682360;30;46560;-89
2021/08/07 06:03:28;;;;;;;;;4.25;1.00;;;;;;;;4674483;30;45411;-89
2021/08/07 06:05:53;;;;;;;;;3.00;1.75;;;;;;;;4684841;30;45536;-88
2021/08/07 06:08:19;;;;;;;;;3.00;1.00;;;;;;;;4684802;30;45536;-88
2021/08/07 06:10:44;;;;;;;;;1.00;1.00;;;;;;;;4742784;24;46333;-85
2021/08/07 06:13:09;;;;;;;;;1.50;1.00;;;;;;;;4680964;30;45807;-88
2021/08/07 06:15:34;;;;;;;;;4.33;2.00;;;;;;;;4689223;30;45507;-88
2021/08/07 06:18:00;;;;;;;;;4.67;2.00;;;;;;;;4682464;30;45549;-89
2021/08/07 06:20:26;;;;;;;;;1.00;1.00;;;;;;;;4685793;30;46664;-88
2021/08/07 06:22:51;;;;;;;;;2.00;1.75;;;;;;;;4689250;30;45368;-88
2021/08/07 06:25:16;;;;;;;;;1.50;1.50;;;;;;;;4666348;30;45666;-89
2021/08/07 06:27:41;;;;;;;;;2.00;1.00;;;;;;;;4681289;30;45322;-88
2021/08/07 06:30:07;;;;;;;;;2.67;2.00;;;;;;;;4685138;30;46311;-88
2021/08/07 06:32:35;;;;;;;;;3.00;2.00;;;;;;;;4698515;24;45714;-79
2021/08/07 06:35:00;;;;;;;;;1.00;1.00;;;;;;;;4688840;30;45443;-79
2021/08/07 06:38:13;;;;;;;;;1.00;1.00;;;;;;;;4687651;30;45914;-79
2021/08/07 06:40:36;;;;;;;;;2.50;1.00;;;;;;;;4686580;30;47382;-79
2021/08/07 06:46:08;;;;;;;;;1.50;0.50;;;;;;;;4650834;30;45631;-79
2021/08/07 06:48:37;;;;;;;;;0.00;0.00;;;;;;;;4652715;30;45421;-79
2021/08/07 06:51:43;;;;;;;;;3.25;1.00;;;;;;;;4651120;30;47232;-81
2021/08/07 06:54:08;;;;;;;;;2.25;2.00;;;;;;;;4638039;30;45742;-80
2021/08/07 06:56:54;;;;;;;;;2.25;1.00;;;;;;;;4647854;30;45713;-79
2021/08/07 06:59:20;;;;;;;;;1.00;1.00;;;;;;;;4634202;30;45905;-79
2021/08/07 07:01:46;;;;;;;;;1.50;1.50;;;;;;;;4631384;30;47352;-80
2021/08/07 07:04:14;;;;;;;;;1.75;1.00;;;;;;;;4636074;30;45612;-80
2021/08/07 07:06:42;;;;;;;;;4.75;2.50;;;;;;;;4650460;30;48493;-80
2021/08/07 07:09:07;;;;;;;;;2.50;1.00;;;;;;;;4650935;30;45626;-79
2021/08/07 07:11:41;;;;;;;;;1.00;1.00;;;;;;;;4646659;30;46166;-79
2021/08/07 07:14:07;;;;;;;;;2.25;2.00;;;;;;;;4650138;30;45707;-79
2021/08/07 07:22:05;;;;;;;;;3.00;2.00;;;;;;;;3146983;27;46146;-78
2021/08/07 07:24:32;;;;;;;;;2.50;1.00;;;;;;;;4699646;30;45687;-79
2021/08/07 07:26:58;;;;;;;;;1.50;1.00;;;;;;;;4688024;30;46199;-78
2021/08/07 07:29:23;;;;;;;;;2.00;1.50;;;;;;;;4697039;30;45468;-79
2021/08/07 07:34:42;;;;;;;;;1.75;1.75;;;;;;;;4702573;24;45644;-78
2021/08/07 07:37:39;;;;;;;;;1.25;1.25;;;;;;;;4685730;30;45658;-78
2021/08/07 07:40:05;;;;;;;;;3.00;1.00;;;;;;;;4647107;30;46302;-78
2021/08/07 07:42:30;;;;;;;;;0.00;0.00;;;;;;;;4654613;30;46741;-78
2021/08/07 07:44:56;;;;;;;;;1.50;1.50;;;;;;;;4655912;24;45826;-92
2021/08/07 07:47:21;;;;;;;;;5.00;3.25;;;;;;;;4680004;30;45363;-92
2021/08/07 07:49:49;;;;;;;;;3.75;2.00;;;;;;;;4691989;30;45504;-92
2021/08/07 07:55:58;;;;;;;;;2.75;1.25;;;;;;;;4575028;30;45570;-79
2021/08/07 07:58:32;;;;;;;;;1.50;1.50;;;;;;;;4573372;30;45665;-78
2021/08/07 08:01:06;;;;;;;;;1.50;1.00;;;;;;;;4569757;30;45625;-81
2021/08/07 08:03:34;;;;;;;;;1.50;1.50;;;;;;;;4569341;30;45574;-77
2021/08/07 08:06:00;;;;;;;;;3.75;1.50;;;;;;;;4558408;30;45727;-79
2021/08/07 08:08:25;;;;;;;;;3.50;0.50;;;;;;;;4567218;30;45655;-78
2021/08/07 08:10:50;;;;;;;;;3.00;1.00;;;;;;;;4570220;30;45762;-77
2021/08/07 08:13:23;;;;;;;;;4.00;1.25;;;;;;;;4575998;30;46156;-78
2021/08/07 08:15:48;;;;;;;;;3.75;1.00;;;;;;;;4570101;30;54862;-78
2021/08/07 08:18:16;;;;;;;;;2.75;2.00;;;;;;;;4574963;30;46542;-78
2021/08/07 08:20:42;;;;;;;;;0.50;0.50;;;;;;;;4569113;30;45534;-78
2021/08/07 08:23:07;;;;;;;;;2.00;0.50;;;;;;;;4556238;30;48277;-79
2021/08/07 08:25:33;;;;;;;;;2.25;0.50;;;;;;;;4565610;31;45957;-79
2021/08/07 08:28:42;;;;;;;;;1.50;0.75;;;;;;;;4556294;30;45926;-78
2021/08/07 08:31:27;;;;;;;;;0.75;0.75;;;;;;;;4629710;30;45850;-77
2021/08/07 08:33:55;;;;;;;;;1.75;0.75;;;;;;;;4685635;30;46268;-78
2021/08/07 08:36:20;;;;;;;;;1.00;1.00;;;;;;;;4705149;30;45528;-78
2021/08/07 08:38:46;;;;;;;;;3.00;1.00;;;;;;;;4704676;30;45595;-78
2021/08/07 08:41:43;;;;;;;;;3.25;1.50;;;;;;;;4701121;30;45550;-79
2021/08/07 08:44:40;;;;;;;;;1.75;0.00;;;;;;;;4682784;30;47153;-82
2021/08/07 08:47:18;;;;;;;;;0.50;0.50;;;;;;;;4683081;30;45769;-78
2021/08/07 08:49:53;;;;;;;;;2.00;1.00;;;;;;;;4707173;30;45489;-78
2021/08/07 08:53:06;;;;;;;;;1.00;1.00;;;;;;;;4690183;30;45712;-80
2021/08/07 08:56:12;;;;;;;;;3.00;0.75;;;;;;;;4652915;30;46207;-80
2021/08/07 08:58:37;;;;;;;;;2.00;1.00;;;;;;;;4643981;30;45651;-81
2021/08/07 09:01:03;;;;;;;;;3.50;1.00;;;;;;;;4652770;30;46145;-81
2021/08/07 09:06:37;;;;;;;;;1.00;0.75;;;;;;;;4570716;30;45529;-82
2021/08/07 09:09:24;;;;;;;;;1.25;1.00;;;;;;;;4574710;31;46151;-81
2021/08/07 09:11:51;;;;;;;;;0.00;0.00;;;;;;;;4560362;31;45659;-81
2021/08/07 09:14:36;;;;;;;;;1.00;1.00;;;;;;;;4568115;30;45914;-81
2021/08/07 09:17:15;;;;;;;;;0.50;0.50;;;;;;;;4572961;31;46290;-81
2021/08/07 09:19:43;;;;;;;;;0.75;0.75;;;;;;;;4572809;31;45761;-80
2021/08/07 09:22:26;;;;;;;;;1.75;0.75;;;;;;;;4679075;24;45744;-81
2021/08/07 09:25:07;;;;;;;;;0.75;0.75;;;;;;;;4705511;30;46274;-80
2021/08/07 09:27:34;;;;;;;;;2.00;2.00;;;;;;;;4711556;29;46857;-80
2021/08/07 09:33:13;;;;;;;;;1.75;1.75;;;;;;;;4654860;30;45599;-80
2021/08/07 09:36:03;;;;;;;;;0.75;0.75;;;;;;;;4637203;30;45540;-81
2021/08/07 09:40:58;;;;;;;;;1.00;1.00;;;;;;;;4671008;30;45494;-87
2021/08/07 09:43:24;;;;;;;;;2.25;0.75;;;;;;;;4660242;30;45546;-87
2021/08/07 09:46:19;;;;;;;;;2.50;1.50;;;;;;;;4692694;24;45442;-82
2021/08/07 09:48:46;;;;;;;;;3.75;1.75;;;;;;;;4706356;24;46515;-80
2021/08/07 09:51:47;;;;;;;;;1.25;1.25;;;;;;;;4679487;30;45388;-80
2021/08/07 09:54:18;;;;;;;;;1.25;1.25;;;;;;;;4611961;30;45690;-80
2021/08/07 09:56:54;;;;;;;;;1.00;1.00;;;;;;;;4596406;30;45758;-80
2021/08/07 09:59:44;;;;;;;;;1.25;1.25;;;;;;;;4609170;30;45586;-80
2021/08/07 10:04:41;;;;;;;;;0.00;0.00;;;;;;;;4643517;30;45564;-80
2021/08/07 10:07:35;;;;;;;;;0.75;0.75;;;;;;;;4646914;30;53723;-81
2021/08/07 10:10:21;;;;;;;;;1.50;0.50;;;;;;;;4571046;30;46465;-80
2021/08/07 10:12:46;;;;;;;;;4.00;1.00;;;;;;;;4573432;30;45863;-81
2021/08/07 10:15:12;;;;;;;;;1.25;1.25;;;;;;;;4572804;30;46828;-81
2021/08/07 10:17:43;;;;;;;;;2.25;1.00;;;;;;;;4552488;30;45792;-80
2021/08/07 10:20:11;;;;;;;;;2.50;1.00;;;;;;;;4568976;30;47208;-80
2021/08/07 10:22:56;;;;;;;;;1.00;1.00;;;;;;;;4571565;30;45557;-81
2021/08/07 10:25:42;;;;;;;;;2.25;1.50;;;;;;;;4568224;30;45895;-80
2021/08/07 10:28:09;;;;;;;;;0.50;0.25;;;;;;;;4570960;30;45631;-80
2021/08/07 10:30:35;;;;;;;;;1.00;1.00;;;;;;;;4574107;30;46522;-80
2021/08/07 10:33:02;;;;;;;;;0.75;0.75;;;;;;;;4552364;30;45583;-81
2021/08/07 10:35:48;;;;;;;;;0.75;0.75;;;;;;;;4619365;24;45554;-80
2021/08/07 10:38:31;;;;;;;;;0.25;0.25;;;;;;;;4597641;30;46088;-80
2021/08/07 10:41:07;;;;;;;;;1.00;1.00;;;;;;;;4594854;30;47140;-80
2021/08/07 10:44:13;;;;;;;;;3.00;0.75;;;;;;;;4601784;30;45624;-81
2021/08/07 10:46:58;;;;;;;;;1.00;1.00;;;;;;;;4603574;30;45505;-81
2021/08/07 10:49:37;;;;;;;;;2.75;1.75;;;;;;;;4599833;30;45709;-81
2021/08/07 10:52:21;;;;;;;;;0.75;0.75;;;;;;;;4602327;30;46248;-80
2021/08/07 10:54:55;;;;;;;;;0.75;0.75;;;;;;;;4603140;30;45423;-78
2021/08/07 10:57:44;;;;;;;;;0.75;0.75;;;;;;;;4598409;30;45365;-79
2021/08/07 11:00:12;;;;;;;;;2.25;0.25;;;;;;;;4618048;24;45747;-86
2021/08/07 11:02:38;;;;;;;;;1.00;1.00;;;;;;;;4692260;30;45588;-87
2021/08/07 11:05:03;;;;;;;;;0.75;0.75;;;;;;;;4678127;30;46260;-89
2021/08/07 11:07:29;;;;;;;;;2.25;1.75;;;;;;;;4692925;30;45526;-89
2021/08/07 11:10:01;;;;;;;;;1.00;1.00;;;;;;;;4692806;30;45372;-90
2021/08/07 11:12:27;;;;;;;;;1.00;1.00;;;;;;;;4698077;30;46057;-87
2021/08/07 11:14:53;;;;;;;;;1.25;1.25;;;;;;;;4692848;30;45460;-90
2021/08/07 11:17:18;;;;;;;;;4.00;1.00;;;;;;;;4692674;30;45414;-87
2021/08/07 11:19:48;;;;;;;;;1.00;0.67;;;;;;;;4697152;30;45725;-88
2021/08/07 11:22:16;;;;;;;;;1.00;0.75;;;;;;;;4700272;30;45834;-86
2021/08/07 11:25:01;;;;;;;;;0.50;0.50;;;;;;;;4750498;24;45290;-89
2021/08/07 11:30:25;;;;;;;;;0.75;0.75;;;;;;;;4683714;30;45544;-86
2021/08/07 11:32:56;;;;;;;;;1.00;1.00;;;;;;;;4682218;30;46543;-87
2021/08/07 11:35:30;;;;;;;;;1.75;0.00;;;;;;;;4715089;24;45527;-79
2021/08/07 11:38:05;;;;;;;;;0.00;0.00;;;;;;;;4686946;30;45564;-79
2021/08/07 11:40:36;;;;;;;;;0.75;0.75;;;;;;;;4682599;30;46414;-79
2021/08/07 11:43:21;;;;;;;;;;;;;;;;;;;;;
2021/08/07 11:46:07;;;;;;;;;2.25;0.75;;;;;;;;4679640;30;74439;-80
2021/08/07 11:48:53;;;;;;;;;0.00;0.00;;;;;;;;4689339;30;45564;-78
2021/08/07 11:51:22;;;;;;;;;1.50;1.50;;;;;;;;4743672;24;45500;-80
2021/08/07 11:53:48;;;;;;;;;1.25;1.00;;;;;;;;4685275;30;46608;-79
2021/08/07 11:56:15;;;;;;;;;2.25;0.00;;;;;;;;4668701;30;45569;-78
2021/08/07 12:01:34;;;;;;;;;1.75;0.00;;;;;;;;4680240;30;45840;-78
2021/08/07 12:04:00;;;;;;;;;1.00;1.00;;;;;;;;4668202;30;47069;-78
2021/08/07 12:07:14;;;;;;;;;0.75;0.75;;;;;;;;4682385;30;45594;-83
2021/08/07 12:09:37;;;;;;;;;1.00;1.00;;;;;;;;4669457;30;45626;-78
2021/08/07 12:12:44;;;;;;;;;2.00;1.00;;;;;;;;4666743;30;48234;-80
2021/08/07 12:15:27;;;;;;;;;0.00;0.00;;;;;;;;4690990;30;46186;-78
2021/08/07 12:17:52;;;;;;;;;0.00;0.00;;;;;;;;4669049;30;45568;-79
2021/08/07 12:26:27;;;;;;;;;0.50;0.25;;;;;;;;4650060;30;46502;-78
2021/08/07 12:29:03;;;;;;;;;1.00;0.00;;;;;;;;4656915;30;45917;-78
2021/08/07 12:31:44;;;;;;;;;0.50;0.50;;;;;;;;4654421;30;46600;-79
2021/08/07 12:34:13;;;;;;;;;1.50;1.00;;;;;;;;4636591;30;46044;-79
2021/08/07 12:37:22;;;;;;;;;1.00;1.00;;;;;;;;4652880;30;45651;-79
2021/08/07 12:39:49;;;;;;;;;0.75;0.75;;;;;;;;4648814;30;45894;-78
2021/08/07 12:42:32;;;;;;;;;1.00;1.00;;;;;;;;4653668;30;46539;-78
2021/08/07 12:48:20;;;;;;;;;2.50;1.00;;;;;;;;4544252;30;45690;-79
2021/08/07 12:51:24;;;;;;;;;2.00;1.00;;;;;;;;4591590;30;45932;-78
2021/08/07 12:53:51;;;;;;;;;1.00;1.00;;;;;;;;4586976;30;45508;-81
2021/08/07 12:56:16;;;;;;;;;3.00;1.00;;;;;;;;4669925;24;46543;-81
2021/08/07 12:59:20;;;;;;;;;0.00;0.00;;;;;;;;4691488;30;49799;-81
2021/08/07 13:02:25;;;;;;;;;3.25;1.00;;;;;;;;4624621;30;45524;-81
2021/08/07 13:04:56;;;;;;;;;0.25;0.25;;;;;;;;4735707;24;45488;-81
2021/08/07 13:07:29;;;;;;;;;2.00;0.00;;;;;;;;4661808;30;45764;-81
2021/08/07 13:10:14;;;;;;;;;0.00;0.00;;;;;;;;4728519;24;46497;-81
2021/08/07 13:12:43;;;;;;;;;0.00;0.00;;;;;;;;4697078;30;46964;-81
2021/08/07 13:15:14;;;;;;;;;0.25;0.25;;;;;;;;4664460;30;46215;-82
2021/08/07 13:27:14;;;;;;;;;1.50;0.75;;;;;;;;4628828;30;45627;-80
2021/08/07 13:33:47;;;;;;;;;0.50;0.00;;;;;;;;4540719;30;45775;-81
2021/08/07 13:36:12;;;;;;;;;0.00;0.00;;;;;;;;4546013;31;45507;-81
2021/08/07 13:49:44;;;;;;;;;0.00;0.00;;;;;;;;4676689;30;45677;-86
2021/08/07 13:52:48;;;;;;;;;1.00;0.00;;;;;;;;4688510;30;45529;-81
2021/08/07 13:55:22;;;;;;;;;0.50;0.00;;;;;;;;4620724;30;47207;-79
2021/08/07 14:01:01;;;;;;;;;1.50;0.00;;;;;;;;4592974;30;45580;-78
2021/08/07 14:03:35;;;;;;;;;0.75;0.00;;;;;;;;4602854;30;45560;-79
2021/08/07 14:06:18;;;;;;;;;1.00;0.00;;;;;;;;4600731;30;45707;-81
2021/08/07 14:11:55;;;;;;;;;0.75;0.25;;;;;;;;4635980;24;46149;-88
2021/08/07 14:16:51;;;;;;;;;1.00;1.00;;;;;;;;4691801;30;45582;-79
2021/08/07 14:19:17;;;;;;;;;1.00;1.00;;;;;;;;4668896;30;45623;-78
2021/08/07 14:21:44;;;;;;;;;0.00;0.00;;;;;;;;4671359;30;45627;-78
2021/08/07 14:24:10;;;;;;;;;1.00;0.00;;;;;;;;4678172;30;46124;-78
2021/08/07 14:27:01;;;;;;;;;2.00;0.75;;;;;;;;4687261;30;45978;-79
2021/08/07 14:32:32;;;;;;;;;0.00;0.00;;;;;;;;4636721;30;45622;-79
2021/08/07 14:35:20;;;;;;;;;0.25;0.00;;;;;;;;4642178;30;45449;-80
2021/08/07 14:37:57;;;;;;;;;1.00;1.00;;;;;;;;4626718;30;47211;-77
2021/08/07 14:40:25;;;;;;;;;0.00;0.00;;;;;;;;4646101;30;45593;-78
2021/08/07 14:42:59;;;;;;;;;0.25;0.25;;;;;;;;4639500;30;45837;-78
2021/08/07 14:45:24;;;;;;;;;0.00;0.00;;;;;;;;4640848;30;45617;-79
2021/08/07 14:48:10;;;;;;;;;0.00;0.00;;;;;;;;4638838;30;46001;-78
2021/08/07 14:50:35;;;;;;;;;2.00;0.00;;;;;;;;4626351;30;45638;-79
2021/08/07 14:53:03;;;;;;;;;1.00;0.00;;;;;;;;4640780;30;45563;-81
2021/08/07 14:55:28;;;;;;;;;1.00;0.00;;;;;;;;4635313;30;45626;-81
2021/08/07 14:58:16;;;;;;;;;0.00;0.00;;;;;;;;4637380;30;46239;-81
2021/08/07 15:03:42;;;;;;;;;1.00;0.00;;;;;;;;2972394;28;51828;-80
2021/08/07 15:06:08;;;;;;;;;4.50;0.00;;;;;;;;4688937;24;45707;-80
2021/08/07 15:11:45;;;;;;;;;;;;;;;;;;;;;
2021/08/07 15:14:10;;;;;;;;;1.50;0.00;;;;;;;;4683252;24;69751;-86
2021/08/07 15:16:35;;;;;;;;;0.00;0.00;;;;;;;;4695179;30;45465;-88
2021/08/07 15:19:18;;;;;;;;;0.75;0.25;;;;;;;;4769951;24;46699;-80
2021/08/07 15:24:18;;;;;;;;;0.50;0.00;;;;;;;;2094323;24;1176831;-86
2021/08/07 15:26:43;;;;;;;;;0.00;0.00;;;;;;;;4681862;30;45560;-86
2021/08/07 15:29:09;;;;;;;;;0.00;0.00;;;;;;;;4782235;24;45981;-85
2021/08/07 15:31:34;;;;;;;;;0.00;0.00;;;;;;;;4700154;24;45767;-89
2021/08/07 15:33:59;;;;;;;;;0.00;0.00;;;;;;;;4678652;30;45337;-86
2021/08/07 15:36:24;;;;;;;;;0.75;0.00;;;;;;;;4695399;30;45483;-87
2021/08/07 15:38:49;;;;;;;;;0.00;0.00;;;;;;;;4693500;30;46726;-85
2021/08/07 15:41:15;;;;;;;;;0.00;0.00;;;;;;;;4697933;30;45470;-87
2021/08/07 15:43:40;;;;;;;;;0.00;0.00;;;;;;;;4695911;30;45606;-85
2021/08/07 15:46:05;;;;;;;;;0.00;0.00;;;;;;;;4693084;30;45509;-85
2021/08/07 15:48:30;;;;;;;;;0.00;0.00;;;;;;;;4695207;30;46466;-85
2021/08/07 15:50:56;;;;;;;;;0.00;0.00;;;;;;;;4694161;30;45385;-89
2021/08/07 15:53:21;;;;;;;;;0.00;0.00;;;;;;;;4697835;30;45494;-86
2021/08/07 15:55:47;;;;;;;;;0.00;0.00;;;;;;;;4695609;30;45503;-86
2021/08/07 15:58:12;;;;;;;;;0.50;0.00;;;;;;;;4699391;30;47375;-85
2021/08/07 16:00:38;;;;;;;;;1.00;0.00;;;;;;;;4684263;30;45468;-84
2021/08/07 16:03:03;;;;;;;;;0.75;0.75;;;;;;;;4699209;30;45945;-89
2021/08/07 16:05:29;;;;;;;;;2.50;0.00;;;;;;;;4699992;30;45676;-87
2021/08/07 16:07:54;;;;;;;;;0.33;0.33;;;;;;;;4700866;30;46413;-88
2021/08/07 16:10:19;;;;;;;;;0.67;0.00;;;;;;;;4700006;30;45569;-87
2021/08/07 16:12:45;;;;;;;;;1.50;0.00;;;;;;;;4697676;30;45487;-86
2021/08/07 16:15:10;;;;;;;;;0.00;0.00;;;;;;;;4701231;30;45930;-89
2021/08/07 16:17:35;;;;;;;;;0.00;0.00;;;;;;;;4699391;30;46346;-90
2021/08/07 16:20:00;;;;;;;;;0.00;0.00;;;;;;;;4685594;30;45578;-89
2021/08/07 16:22:26;;;;;;;;;0.50;0.00;;;;;;;;4699826;30;45579;-89
2021/08/07 16:24:51;;;;;;;;;0.00;0.00;;;;;;;;4701243;30;45697;-88
2021/08/07 16:27:16;;;;;;;;;0.00;0.00;;;;;;;;4701380;30;46445;-88
2021/08/07 16:29:41;;;;;;;;;1.00;0.00;;;;;;;;4682921;30;45792;-89
2021/08/07 16:32:06;;;;;;;;;0.33;0.33;;;;;;;;4698147;30;45219;-88
2021/08/07 16:34:32;;;;;;;;;3.00;1.25;;;;;;;;4701367;30;45730;-88
2021/08/07 16:36:57;;;;;;;;;1.00;1.00;;;;;;;;4697784;30;45490;-89
2021/08/07 16:39:22;;;;;;;;;1.00;1.00;;;;;;;;4680889;30;46764;-88
2021/08/07 16:41:48;;;;;;;;;2.00;1.00;;;;;;;;4815064;24;45718;-88
2021/08/07 16:44:13;;;;;;;;;2.00;1.00;;;;;;;;4686591;30;45891;-89
2021/08/07 16:46:39;;;;;;;;;0.00;0.00;;;;;;;;4688625;30;47370;-89
2021/08/07 16:51:38;;;;;;;;;1.50;1.50;;;;;;;;4707426;30;45513;-88
2021/08/07 16:54:03;;;;;;;;;1.00;1.00;;;;;;;;4706106;30;45647;-88
2021/08/07 16:56:28;;;;;;;;;1.00;1.00;;;;;;;;4700437;30;45502;-88
2021/08/07 17:01:23;;;;;;;;;1.00;1.00;;;;;;;;4713553;24;45615;-89
2021/08/07 17:03:48;;;;;;;;;1.00;1.00;;;;;;;;4694337;30;45537;-88
2021/08/07 17:06:13;;;;;;;;;0.67;0.67;;;;;;;;4794289;24;46476;-89
2021/08/07 17:08:38;;;;;;;;;4.25;1.00;;;;;;;;4687406;30;45639;-90
2021/08/07 17:11:04;;;;;;;;;2.00;1.50;;;;;;;;4687709;30;45246;-89
2021/08/07 17:13:29;;;;;;;;;1.00;1.00;;;;;;;;4682604;30;45590;-89
2021/08/07 17:18:26;;;;;;;;;0.00;0.00;;;;;;;;4674125;30;45514;-89
2021/08/07 17:23:20;;;;;;;;;3.00;1.00;;;;;;;;4704722;30;46918;-80
2021/08/07 17:25:45;;;;;;;;;2.00;1.00;;;;;;;;4715243;30;45672;-81
2021/08/07 17:30:43;;;;;;;;;1.50;1.00;;;;;;;;4723936;24;45487;-80